sensor_id;sensor_type;location;lat;lon;timestamp;P1;durP1;ratioP1;P2;durP2;ratioP2
75272;SDS011;63869;52.344;16.928;2024-02-28T11:07:46;18.73;;;7.53;;
75272;SDS011;63869;52.344;16.928;2024-02-28T11:10:16;18.25;;;8.73;;
75272;SDS011;63869;52.344;16.928;2024-02-28T11:12:55;17.98;;;8.30;;
75272;SDS011;63869;52.344;16.928;2024-02-28T11:15:21;17.25;;;7.80;;
75272;SDS011;63869;52.344;16.928;2024-02-28T11:17:51;18.58;;;7.47;;
75272;SDS011;63869;52.344;16.928;2024-02-28T11:20:16;16.33;;;8.07;;
75272;SDS011;63869;52.344;16.928;2024-02-28T11:43:21;15.88;;;7.55;;
75272;SDS011;63869;52.344;16.928;2024-02-28T11:45:54;18.20;;;8.45;;
75272;SDS011;63869;52.344;16.928;2024-02-28T11:48:25;22.38;;;9.68;;
75272;SDS011;63869;52.344;16.928;2024-02-28T11:53:21;20.48;;;9.88;;
75272;SDS011;63869;52.344;16.928;2024-02-28T11:55:46;16.00;;;7.70;;
75272;SDS011;63869;52.344;16.928;2024-02-28T11:58:13;20.83;;;8.93;;
75272;SDS011;63869;52.344;16.928;2024-02-28T12:00:51;23.42;;;9.20;;
75272;SDS011;63869;52.344;16.928;2024-02-28T12:03:20;20.38;;;9.45;;
75272;SDS011;63869;52.344;16.928;2024-02-28T12:05:50;22.30;;;8.90;;
75272;SDS011;63869;52.344;16.928;2024-02-28T12:08:19;21.15;;;8.93;;
75272;SDS011;63869;52.344;16.928;2024-02-28T12:10:45;18.30;;;8.57;;
75272;SDS011;63869;52.344;16.928;2024-02-28T12:13:15;19.48;;;8.68;;
75272;SDS011;63869;52.344;16.928;2024-02-28T12:15:41;20.85;;;9.25;;
75272;SDS011;63869;52.344;16.928;2024-02-28T12:18:07;21.77;;;9.23;;
75272;SDS011;63869;52.344;16.928;2024-02-28T12:20:35;21.02;;;10.20;;
75272;SDS011;63869;52.344;16.928;2024-02-28T12:23:02;23.38;;;10.02;;
75272;SDS011;63869;52.344;16.928;2024-02-28T12:25:27;20.33;;;9.15;;
75272;SDS011;63869;52.344;16.928;2024-02-28T12:27:53;18.30;;;8.90;;
75272;SDS011;63869;52.344;16.928;2024-02-28T12:30:18;19.88;;;9.18;;
75272;SDS011;63869;52.344;16.928;2024-02-28T12:32:43;16.77;;;8.90;;
75272;SDS011;63869;52.344;16.928;2024-02-28T12:35:08;22.05;;;9.65;;
75272;SDS011;63869;52.344;16.928;2024-02-28T12:37:34;17.77;;;9.38;;
75272;SDS011;63869;52.344;16.928;2024-02-28T12:39:59;16.98;;;8.50;;
75272;SDS011;63869;52.344;16.928;2024-02-28T12:42:24;19.08;;;8.63;;
75272;SDS011;63869;52.344;16.928;2024-02-28T12:44:50;18.05;;;9.25;;
75272;SDS011;63869;52.344;16.928;2024-02-28T12:47:16;16.95;;;8.27;;
75272;SDS011;63869;52.344;16.928;2024-02-28T12:49:41;16.17;;;8.25;;
75272;SDS011;63869;52.344;16.928;2024-02-28T12:52:07;19.55;;;7.97;;
75272;SDS011;63869;52.344;16.928;2024-02-28T12:54:32;18.63;;;9.18;;
75272;SDS011;63869;52.344;16.928;2024-02-28T12:56:58;17.60;;;8.27;;
75272;SDS011;63869;52.344;16.928;2024-02-28T12:59:24;14.57;;;7.45;;
75272;SDS011;63869;52.344;16.928;2024-02-28T13:01:50;19.40;;;8.65;;
75272;SDS011;63869;52.344;16.928;2024-02-28T13:04:16;18.73;;;7.75;;
75272;SDS011;63869;52.344;16.928;2024-02-28T13:06:41;15.52;;;7.78;;
75272;SDS011;63869;52.344;16.928;2024-02-28T13:09:07;17.50;;;8.40;;
75272;SDS011;63869;52.344;16.928;2024-02-28T13:11:37;19.42;;;9.02;;
75272;SDS011;63869;52.344;16.928;2024-02-28T13:14:03;16.95;;;7.80;;
75272;SDS011;63869;52.344;16.928;2024-02-28T13:16:30;15.50;;;7.55;;
75272;SDS011;63869;52.344;16.928;2024-02-28T13:18:55;18.40;;;7.63;;
75272;SDS011;63869;52.344;16.928;2024-02-28T13:21:21;18.17;;;7.93;;
75272;SDS011;63869;52.344;16.928;2024-02-28T13:23:46;22.20;;;9.52;;
75272;SDS011;63869;52.344;16.928;2024-02-28T13:26:12;19.88;;;9.55;;
75272;SDS011;63869;52.344;16.928;2024-02-28T13:28:42;21.33;;;9.43;;
75272;SDS011;63869;52.344;16.928;2024-02-28T13:31:09;19.45;;;8.85;;
75272;SDS011;63869;52.344;16.928;2024-02-28T13:33:34;19.58;;;10.38;;
75272;SDS011;63869;52.344;16.928;2024-02-28T13:36:02;25.80;;;11.27;;
75272;SDS011;63869;52.344;16.928;2024-02-28T13:38:27;17.35;;;8.80;;
75272;SDS011;63869;52.344;16.928;2024-02-28T13:40:53;16.55;;;8.57;;
75272;SDS011;63869;52.344;16.928;2024-02-28T13:43:18;18.52;;;8.98;;
75272;SDS011;63869;52.344;16.928;2024-02-28T13:45:47;18.10;;;9.30;;
75272;SDS011;63869;52.344;16.928;2024-02-28T13:48:18;20.92;;;9.25;;
75272;SDS011;63869;52.344;16.928;2024-02-28T13:50:50;21.25;;;10.05;;
75272;SDS011;63869;52.344;16.928;2024-02-28T13:53:16;21.88;;;9.98;;
75272;SDS011;63869;52.344;16.928;2024-02-28T13:55:42;22.92;;;10.43;;
75272;SDS011;63869;52.344;16.928;2024-02-28T13:58:08;24.80;;;10.30;;
75272;SDS011;63869;52.344;16.928;2024-02-28T14:00:36;25.85;;;11.13;;
75272;SDS011;63869;52.344;16.928;2024-02-28T14:03:02;25.13;;;11.07;;
75272;SDS011;63869;52.344;16.928;2024-02-28T14:05:28;22.80;;;10.80;;
75272;SDS011;63869;52.344;16.928;2024-02-28T14:07:54;26.25;;;11.30;;
75272;SDS011;63869;52.344;16.928;2024-02-28T14:10:19;29.95;;;14.40;;
75272;SDS011;63869;52.344;16.928;2024-02-28T14:12:46;29.20;;;11.30;;
75272;SDS011;63869;52.344;16.928;2024-02-28T14:15:12;25.25;;;11.00;;
75272;SDS011;63869;52.344;16.928;2024-02-28T14:17:37;31.80;;;12.95;;
75272;SDS011;63869;52.344;16.928;2024-02-28T14:20:03;30.27;;;12.43;;
75272;SDS011;63869;52.344;16.928;2024-02-28T14:22:29;31.65;;;13.55;;
75272;SDS011;63869;52.344;16.928;2024-02-28T14:24:55;29.45;;;13.38;;
75272;SDS011;63869;52.344;16.928;2024-02-28T14:27:21;33.22;;;11.82;;
75272;SDS011;63869;52.344;16.928;2024-02-28T14:29:46;38.10;;;13.52;;
75272;SDS011;63869;52.344;16.928;2024-02-28T14:32:14;38.85;;;13.68;;
75272;SDS011;63869;52.344;16.928;2024-02-28T14:34:40;43.47;;;14.43;;
75272;SDS011;63869;52.344;16.928;2024-02-28T14:37:06;44.30;;;13.95;;
75272;SDS011;63869;52.344;16.928;2024-02-28T14:39:31;45.58;;;14.32;;
75272;SDS011;63869;52.344;16.928;2024-02-28T14:41:56;42.55;;;14.38;;
75272;SDS011;63869;52.344;16.928;2024-02-28T14:44:22;43.20;;;15.85;;
75272;SDS011;63869;52.344;16.928;2024-02-28T14:46:47;44.47;;;15.13;;
75272;SDS011;63869;52.344;16.928;2024-02-28T14:49:13;48.17;;;15.52;;
75272;SDS011;63869;52.344;16.928;2024-02-28T14:51:38;41.67;;;12.70;;
75272;SDS011;63869;52.344;16.928;2024-02-28T14:54:05;48.45;;;16.05;;
75272;SDS011;63869;52.344;16.928;2024-02-28T14:56:31;48.78;;;14.27;;
75272;SDS011;63869;52.344;16.928;2024-02-28T14:58:57;58.67;;;17.40;;
75272;SDS011;63869;52.344;16.928;2024-02-28T15:01:23;55.67;;;15.30;;
75272;SDS011;63869;52.344;16.928;2024-02-28T15:03:49;54.63;;;15.05;;
75272;SDS011;63869;52.344;16.928;2024-02-28T15:06:15;54.05;;;13.02;;
75272;SDS011;63869;52.344;16.928;2024-02-28T15:08:40;56.05;;;14.82;;
75272;SDS011;63869;52.344;16.928;2024-02-28T15:11:06;61.83;;;16.00;;
75272;SDS011;63869;52.344;16.928;2024-02-28T15:13:31;62.05;;;15.80;;
75272;SDS011;63869;52.344;16.928;2024-02-28T15:15:56;58.88;;;14.93;;
75272;SDS011;63869;52.344;16.928;2024-02-28T15:18:22;61.90;;;16.90;;
75272;SDS011;63869;52.344;16.928;2024-02-28T15:20:47;56.65;;;16.05;;
75272;SDS011;63869;52.344;16.928;2024-02-28T15:23:13;59.17;;;15.48;;
75272;SDS011;63869;52.344;16.928;2024-02-28T15:25:38;55.22;;;15.10;;
75272;SDS011;63869;52.344;16.928;2024-02-28T15:28:04;56.05;;;14.77;;
75272;SDS011;63869;52.344;16.928;2024-02-28T15:30:29;56.60;;;14.45;;
75272;SDS011;63869;52.344;16.928;2024-02-28T15:32:55;49.13;;;15.18;;
75272;SDS011;63869;52.344;16.928;2024-02-28T15:35:20;53.33;;;15.02;;
75272;SDS011;63869;52.344;16.928;2024-02-28T15:37:47;44.75;;;14.13;;
75272;SDS011;63869;52.344;16.928;2024-02-28T15:40:12;43.20;;;13.35;;
75272;SDS011;63869;52.344;16.928;2024-02-28T15:42:38;39.47;;;11.40;;
75272;SDS011;63869;52.344;16.928;2024-02-28T15:45:04;39.10;;;12.40;;
75272;SDS011;63869;52.344;16.928;2024-02-28T15:47:30;39.47;;;11.75;;
75272;SDS011;63869;52.344;16.928;2024-02-28T15:49:56;30.15;;;11.10;;
75272;SDS011;63869;52.344;16.928;2024-02-28T15:52:22;43.08;;;12.27;;
75272;SDS011;63869;52.344;16.928;2024-02-28T15:54:48;36.60;;;10.93;;
75272;SDS011;63869;52.344;16.928;2024-02-28T15:57:13;32.17;;;11.30;;
75272;SDS011;63869;52.344;16.928;2024-02-28T15:59:38;30.90;;;10.32;;
75272;SDS011;63869;52.344;16.928;2024-02-28T16:02:04;33.75;;;11.48;;
75272;SDS011;63869;52.344;16.928;2024-02-28T16:04:30;32.78;;;11.43;;
75272;SDS011;63869;52.344;16.928;2024-02-28T16:06:56;44.20;;;14.07;;
75272;SDS011;63869;52.344;16.928;2024-02-28T16:09:23;37.35;;;11.70;;
75272;SDS011;63869;52.344;16.928;2024-02-28T16:11:48;36.30;;;11.73;;
75272;SDS011;63869;52.344;16.928;2024-02-28T16:14:13;38.92;;;12.25;;
75272;SDS011;63869;52.344;16.928;2024-02-28T16:16:39;39.00;;;12.45;;
75272;SDS011;63869;52.344;16.928;2024-02-28T16:19:04;41.53;;;12.73;;
75272;SDS011;63869;52.344;16.928;2024-02-28T16:21:30;32.75;;;11.05;;
75272;SDS011;63869;52.344;16.928;2024-02-28T16:23:56;42.67;;;12.35;;
75272;SDS011;63869;52.344;16.928;2024-02-28T16:26:21;48.35;;;13.80;;
75272;SDS011;63869;52.344;16.928;2024-02-28T16:28:47;41.45;;;11.98;;
75272;SDS011;63869;52.344;16.928;2024-02-28T16:31:12;34.40;;;11.52;;
75272;SDS011;63869;52.344;16.928;2024-02-28T16:33:38;38.33;;;12.65;;
75272;SDS011;63869;52.344;16.928;2024-02-28T16:36:03;40.95;;;11.65;;
75272;SDS011;63869;52.344;16.928;2024-02-28T16:38:29;45.00;;;13.68;;
75272;SDS011;63869;52.344;16.928;2024-02-28T16:40:54;44.97;;;14.35;;
75272;SDS011;63869;52.344;16.928;2024-02-28T16:43:19;46.22;;;13.80;;
75272;SDS011;63869;52.344;16.928;2024-02-28T16:45:45;41.05;;;12.32;;
75272;SDS011;63869;52.344;16.928;2024-02-28T16:48:11;43.47;;;13.98;;
75272;SDS011;63869;52.344;16.928;2024-02-28T16:50:36;48.97;;;14.20;;
75272;SDS011;63869;52.344;16.928;2024-02-28T16:53:02;46.97;;;13.40;;
75272;SDS011;63869;52.344;16.928;2024-02-28T16:55:27;45.35;;;14.43;;
75272;SDS011;63869;52.344;16.928;2024-02-28T16:57:53;42.72;;;13.77;;
75272;SDS011;63869;52.344;16.928;2024-02-28T17:00:18;52.45;;;14.23;;
75272;SDS011;63869;52.344;16.928;2024-02-28T17:02:45;45.90;;;15.50;;
75272;SDS011;63869;52.344;16.928;2024-02-28T17:05:10;50.67;;;16.95;;
75272;SDS011;63869;52.344;16.928;2024-02-28T17:07:36;56.72;;;15.73;;
75272;SDS011;63869;52.344;16.928;2024-02-28T17:10:01;53.83;;;15.73;;
75272;SDS011;63869;52.344;16.928;2024-02-28T17:12:27;49.47;;;15.25;;
75272;SDS011;63869;52.344;16.928;2024-02-28T17:14:53;44.83;;;14.82;;
75272;SDS011;63869;52.344;16.928;2024-02-28T17:17:21;46.60;;;14.93;;
75272;SDS011;63869;52.344;16.928;2024-02-28T17:19:47;61.70;;;17.50;;
75272;SDS011;63869;52.344;16.928;2024-02-28T17:22:13;54.47;;;16.48;;
75272;SDS011;63869;52.344;16.928;2024-02-28T17:24:39;64.93;;;16.85;;
75272;SDS011;63869;52.344;16.928;2024-02-28T17:27:05;50.50;;;16.73;;
75272;SDS011;63869;52.344;16.928;2024-02-28T17:29:31;60.70;;;17.63;;
75272;SDS011;63869;52.344;16.928;2024-02-28T17:31:58;59.10;;;17.38;;
75272;SDS011;63869;52.344;16.928;2024-02-28T17:34:24;53.97;;;16.90;;
75272;SDS011;63869;52.344;16.928;2024-02-28T17:36:49;69.75;;;18.05;;
75272;SDS011;63869;52.344;16.928;2024-02-28T17:39:14;52.58;;;14.63;;
75272;SDS011;63869;52.344;16.928;2024-02-28T17:41:42;56.45;;;15.82;;
75272;SDS011;63869;52.344;16.928;2024-02-28T17:44:10;59.33;;;16.42;;
75272;SDS011;63869;52.344;16.928;2024-02-28T17:46:36;47.42;;;14.40;;
75272;SDS011;63869;52.344;16.928;2024-02-28T17:49:02;49.85;;;14.88;;
75272;SDS011;63869;52.344;16.928;2024-02-28T17:51:31;45.22;;;15.50;;
75272;SDS011;63869;52.344;16.928;2024-02-28T17:54:00;43.90;;;14.10;;
75272;SDS011;63869;52.344;16.928;2024-02-28T17:56:27;48.13;;;15.63;;
75272;SDS011;63869;52.344;16.928;2024-02-28T17:58:52;46.97;;;15.20;;
75272;SDS011;63869;52.344;16.928;2024-02-28T18:01:17;42.25;;;14.73;;
75272;SDS011;63869;52.344;16.928;2024-02-28T18:03:42;37.20;;;11.82;;
75272;SDS011;63869;52.344;16.928;2024-02-28T18:06:09;41.08;;;12.10;;
75272;SDS011;63869;52.344;16.928;2024-02-28T18:08:34;39.38;;;13.98;;
75272;SDS011;63869;52.344;16.928;2024-02-28T18:11:01;42.00;;;14.05;;
75272;SDS011;63869;52.344;16.928;2024-02-28T18:13:29;38.63;;;14.15;;
75272;SDS011;63869;52.344;16.928;2024-02-28T18:15:54;40.35;;;14.68;;
75272;SDS011;63869;52.344;16.928;2024-02-28T18:18:20;45.42;;;14.90;;
75272;SDS011;63869;52.344;16.928;2024-02-28T18:20:45;39.00;;;13.45;;
75272;SDS011;63869;52.344;16.928;2024-02-28T18:23:11;43.08;;;14.20;;
75272;SDS011;63869;52.344;16.928;2024-02-28T18:25:36;31.83;;;12.38;;
75272;SDS011;63869;52.344;16.928;2024-02-28T18:28:01;30.70;;;11.45;;
75272;SDS011;63869;52.344;16.928;2024-02-28T18:30:27;31.52;;;11.10;;
75272;SDS011;63869;52.344;16.928;2024-02-28T18:32:52;29.92;;;10.95;;
75272;SDS011;63869;52.344;16.928;2024-02-28T18:35:17;23.25;;;9.07;;
75272;SDS011;63869;52.344;16.928;2024-02-28T18:37:43;32.58;;;10.77;;
75272;SDS011;63869;52.344;16.928;2024-02-28T18:40:09;27.52;;;11.13;;
75272;SDS011;63869;52.344;16.928;2024-02-28T18:42:38;25.58;;;9.43;;
75272;SDS011;63869;52.344;16.928;2024-02-28T18:45:04;27.48;;;9.50;;
75272;SDS011;63869;52.344;16.928;2024-02-28T18:47:31;27.23;;;10.88;;
75272;SDS011;63869;52.344;16.928;2024-02-28T18:49:57;27.90;;;9.93;;
75272;SDS011;63869;52.344;16.928;2024-02-28T18:52:22;29.42;;;10.10;;
75272;SDS011;63869;52.344;16.928;2024-02-28T18:54:48;25.85;;;10.25;;
75272;SDS011;63869;52.344;16.928;2024-02-28T18:57:14;28.70;;;10.32;;
75272;SDS011;63869;52.344;16.928;2024-02-28T18:59:45;25.23;;;10.18;;
75272;SDS011;63869;52.344;16.928;2024-02-28T19:02:10;22.00;;;9.23;;
75272;SDS011;63869;52.344;16.928;2024-02-28T19:04:36;23.23;;;9.93;;
75272;SDS011;63869;52.344;16.928;2024-02-28T19:07:01;23.95;;;9.95;;
75272;SDS011;63869;52.344;16.928;2024-02-28T19:09:26;27.98;;;9.75;;
75272;SDS011;63869;52.344;16.928;2024-02-28T19:11:52;24.77;;;10.00;;
75272;SDS011;63869;52.344;16.928;2024-02-28T19:14:17;23.60;;;9.88;;
75272;SDS011;63869;52.344;16.928;2024-02-28T19:16:42;30.35;;;12.05;;
75272;SDS011;63869;52.344;16.928;2024-02-28T19:19:08;29.23;;;10.32;;
75272;SDS011;63869;52.344;16.928;2024-02-28T19:21:33;24.98;;;10.27;;
75272;SDS011;63869;52.344;16.928;2024-02-28T19:23:59;26.38;;;10.00;;
75272;SDS011;63869;52.344;16.928;2024-02-28T19:26:25;22.08;;;9.32;;
75272;SDS011;63869;52.344;16.928;2024-02-28T19:28:50;23.60;;;10.13;;
75272;SDS011;63869;52.344;16.928;2024-02-28T19:31:15;21.95;;;9.45;;
75272;SDS011;63869;52.344;16.928;2024-02-28T19:33:44;24.02;;;9.15;;
75272;SDS011;63869;52.344;16.928;2024-02-28T19:36:09;22.73;;;9.48;;
75272;SDS011;63869;52.344;16.928;2024-02-28T19:38:35;34.28;;;11.73;;
75272;SDS011;63869;52.344;16.928;2024-02-28T19:41:00;23.15;;;10.13;;
75272;SDS011;63869;52.344;16.928;2024-02-28T19:43:25;23.35;;;9.40;;
75272;SDS011;63869;52.344;16.928;2024-02-28T19:45:51;21.23;;;8.48;;
75272;SDS011;63869;52.344;16.928;2024-02-28T19:48:16;22.55;;;9.55;;
75272;SDS011;63869;52.344;16.928;2024-02-28T19:50:42;23.92;;;10.30;;
75272;SDS011;63869;52.344;16.928;2024-02-28T19:55:59;23.17;;;9.57;;
75272;SDS011;63869;52.344;16.928;2024-02-28T19:58:24;25.17;;;10.18;;
75272;SDS011;63869;52.344;16.928;2024-02-28T20:00:50;23.95;;;10.13;;
75272;SDS011;63869;52.344;16.928;2024-02-28T20:03:15;22.60;;;9.18;;
75272;SDS011;63869;52.344;16.928;2024-02-28T20:05:41;23.33;;;9.07;;
75272;SDS011;63869;52.344;16.928;2024-02-28T20:08:06;21.45;;;9.68;;
75272;SDS011;63869;52.344;16.928;2024-02-28T20:10:32;26.00;;;10.23;;
75272;SDS011;63869;52.344;16.928;2024-02-28T20:12:58;20.65;;;8.77;;
75272;SDS011;63869;52.344;16.928;2024-02-28T20:15:23;26.05;;;9.75;;
75272;SDS011;63869;52.344;16.928;2024-02-28T20:17:50;23.08;;;9.75;;
75272;SDS011;63869;52.344;16.928;2024-02-28T20:20:19;21.88;;;9.48;;
75272;SDS011;63869;52.344;16.928;2024-02-28T20:22:45;20.65;;;9.57;;
75272;SDS011;63869;52.344;16.928;2024-02-28T20:25:12;21.08;;;8.85;;
75272;SDS011;63869;52.344;16.928;2024-02-28T20:27:38;18.15;;;8.52;;
75272;SDS011;63869;52.344;16.928;2024-02-28T20:33:07;18.42;;;7.80;;
